Skip to main content.
Our real time weather data display below is updated continuously via our 24/7 live data feed.
 TIME   TEMPERATURE   WINDSPEED   DIRECTION   HUMIDITY   BAROMETER   RAINFALL 
8:25 19.0°C (66.2°F) 5.6 kmh (3.5 mph) NNW 68% 1015.9hPa (30.00 inHg) 0.0mm (0.00 in.)
7:18 17.0°C (62.6 °F) 7.4 kmh (4.6 mph) SW 93% 1014.9hPa (29.97 inHg) 0.0mm (0.00 in.)
6:18 15.0°C (59.0 °F) 5.6 kmh (3.5 mph) WSW 87% 1014.9hPa (29.97 inHg) 0.0mm (0.00 in.)
5:18 16.0°C (60.8 °F) 11.1 kmh (6.9 mph) SW 93% 1014.9hPa (29.97 inHg) 0.0mm (0.00 in.)
4:18 15.0°C (59.0 °F) 9.3 kmh (5.8 mph) WSW 76% 1014.9hPa (29.97 inHg) 0.0mm (0.00 in.)
3:18 16.0°C (60.8 °F) 3.7 kmh (2.3 mph) SSW 67% 1014.9hPa (29.97 inHg) 0.0mm (0.00 in.)
2:18 16.0°C (60.8 °F) 13.0 kmh (8.1 mph) WSW 82% 1014.9hPa (29.97 inHg) 0.0mm (0.00 in.)
1:18 17.0°C (62.6 °F) 14.8 kmh (9.2 mph) WSW 88% 1014.9hPa (29.97 inHg) 0.0mm (0.00 in.)
0:18 16.0°C (60.8 °F) 14.8 kmh (9.2 mph) WSW 87% 1014.9hPa (29.97 inHg) 0.0mm (0.00 in.)
23:18 17.0°C (62.6 °F) 13.0 kmh (8.1 mph) WSW 82% 1014.9hPa (29.97 inHg) 0.0mm (0.00 in.)
22:18 17.0°C (62.6 °F) 9.3 kmh (5.8 mph) WSW 77% 1014.9hPa (29.97 inHg) 0.0mm (0.00 in.)
21:18 17.0°C (62.6 °F) 14.8 kmh (9.2 mph) W 77% 1014.9hPa (29.97 inHg) 0.0mm (0.00 in.)
20:18 18.0°C (64.4 °F) 14.8 kmh (9.2 mph) W 67% 1014.9hPa (29.97 inHg) 0.0mm (0.00 in.)
19:18 20.0°C (68.0 °F) 22.2 kmh (13.8 mph) WNW 56% 1014.9hPa (29.97 inHg) 0.0mm (0.00 in.)
18:18 21.0°C (69.8 °F) 24.1 kmh (15.0 mph) WNW 52% 1014.9hPa (29.97 inHg) 0.0mm (0.00 in.)
17:18 22.0°C (71.6 °F) 31.5 kmh (19.6 mph) WNW 49% 1014.9hPa (29.97 inHg) 0.0mm (0.00 in.)
16:18 22.0°C (71.6 °F) 31.5 kmh (19.6 mph) WNW 46% 1014.9hPa (29.97 inHg) 0.0mm (0.00 in.)
15:18 22.0°C (71.6 °F) 25.9 kmh (16.1 mph) W 46% 1014.9hPa (29.97 inHg) 0.0mm (0.00 in.)
14:18 23.0°C (73.4 °F) 24.1 kmh (15.0 mph) WNW 43% 1015.9hPa (30.00 inHg) 0.0mm (0.00 in.)
13:18 23.0°C (73.4 °F) 25.9 kmh (16.1 mph) NW 35% 1015.9hPa (30.00 inHg) 0.0mm (0.00 in.)
12:18 22.0°C (71.6 °F) 24.1 kmh (15.0 mph) WNW 46% 1014.9hPa (29.97 inHg) 0.0mm (0.00 in.)
11:18 22.0°C (71.6 °F) 20.4 kmh (12.7 mph) WNW 46% 1014.9hPa (29.97 inHg) 0.0mm (0.00 in.)
10:18 20.0°C (68.0 °F) 27.8 kmh (17.3 mph) NW 59% 1014.9hPa (29.97 inHg) 0.0mm (0.00 in.)
9:18 19.0°C (66.2 °F) 22.2 kmh (13.8 mph) WNW 68% 1014.9hPa (29.97 inHg) 0.0mm (0.00 in.)